createdAt,value
2023-02-18T00:00:28.582Z,99317.84
2023-02-18T00:03:51.616Z,99313.19
2023-02-18T00:07:13.490Z,99306.75
2023-02-18T00:10:40.388Z,99295.50
2023-02-18T00:14:12.209Z,99303.84
2023-02-18T00:17:38.350Z,99308.34
2023-02-18T00:21:05.722Z,99305.94
2023-02-18T00:24:28.658Z,99308.66
2023-02-18T00:27:51.647Z,99322.19
2023-02-18T00:31:21.203Z,99316.75
2023-02-18T00:34:49.968Z,99310.59
2023-02-18T00:38:12.128Z,99313.59
2023-02-18T00:41:35.643Z,99320.06
2023-02-18T00:44:58.574Z,99311.94
2023-02-18T00:48:20.672Z,99326.81
2023-02-18T00:51:43.853Z,99323.19
2023-02-18T00:55:06.281Z,99320.56
2023-02-18T00:58:29.495Z,99322.72
2023-02-18T01:01:51.440Z,99318.66
2023-02-18T01:05:13.321Z,99310.66
2023-02-18T01:08:37.171Z,99323.47
2023-02-18T01:12:00.118Z,99326.47
2023-02-18T01:15:23.107Z,99316.25
2023-02-18T01:18:46.080Z,99305.81
2023-02-18T01:22:09.183Z,99308.00
2023-02-18T01:25:38.359Z,99307.25
2023-02-18T01:29:00.357Z,99311.38
2023-02-18T01:32:22.891Z,99303.34
2023-02-18T01:35:45.605Z,99301.25
2023-02-18T01:39:07.549Z,99294.50
2023-02-18T01:42:30.163Z,99294.38
2023-02-18T01:46:17.364Z,99270.41
2023-02-18T01:49:53.589Z,99278.38
2023-02-18T01:53:27.132Z,99264.50
2023-02-18T01:57:13.879Z,99270.97
2023-02-18T02:00:36.995Z,99264.88
2023-02-18T02:04:01.816Z,99266.31
2023-02-18T02:07:29.231Z,99260.72
2023-02-18T02:11:55.334Z,99260.81
2023-02-18T02:15:47.726Z,99256.63
2023-02-18T02:19:34.334Z,99253.78
2023-02-18T02:23:39.557Z,99250.25
2023-02-18T02:27:24.320Z,99231.94
2023-02-18T02:31:16.846Z,99239.53
2023-02-18T02:35:01.347Z,99232.50
2023-02-18T02:38:43.992Z,99221.69
2023-02-18T02:42:41.409Z,99227.50
2023-02-18T02:46:18.312Z,99216.09
2023-02-18T02:50:00.355Z,99228.78
2023-02-18T02:53:28.743Z,99213.34
2023-02-18T02:57:02.195Z,99213.44
2023-02-18T03:01:08.479Z,99223.44
2023-02-18T03:04:59.758Z,99224.81
2023-02-18T03:08:50.566Z,99234.88
2023-02-18T03:12:43.731Z,99218.03
2023-02-18T03:16:21.896Z,99208.69
2023-02-18T03:20:02.261Z,99207.72
2023-02-18T03:23:58.317Z,99207.19
2023-02-18T03:27:31.851Z,99209.38
2023-02-18T03:31:06.314Z,99188.75
2023-02-18T03:34:40.874Z,99197.69
2023-02-18T03:38:23.646Z,99203.53
2023-02-18T03:41:46.491Z,99200.75
2023-02-18T03:45:08.535Z,99180.56
2023-02-18T03:48:30.378Z,99188.84
2023-02-18T03:51:52.332Z,99178.47
2023-02-18T03:55:14.535Z,99193.13
2023-02-18T03:58:36.435Z,99195.41
2023-02-18T04:01:58.289Z,99182.66
2023-02-18T04:05:21.237Z,99180.38
2023-02-18T04:08:43.252Z,99167.63
2023-02-18T04:12:05.187Z,99167.44
2023-02-18T04:15:36.920Z,99181.94
2023-02-18T04:18:59.950Z,99173.84
2023-02-18T04:22:27.776Z,99174.75
2023-02-18T04:25:52.784Z,99172.13
2023-02-18T04:29:14.848Z,99163.16
2023-02-18T04:32:38.793Z,99175.31
2023-02-18T04:36:00.661Z,99167.22
2023-02-18T04:39:22.572Z,99166.97
2023-02-18T04:42:44.327Z,99166.81
2023-02-18T04:46:07.590Z,99162.75
2023-02-18T04:49:29.684Z,99177.03
2023-02-18T04:52:51.546Z,99161.38
2023-02-18T04:56:14.976Z,99134.72
2023-02-18T04:59:37.049Z,99155.47
2023-02-18T05:02:58.856Z,99151.38
2023-02-18T05:06:20.697Z,99162.34
2023-02-18T05:09:42.701Z,99169.50
2023-02-18T05:13:04.641Z,99165.84
2023-02-18T05:16:37.516Z,99168.81
2023-02-18T05:19:59.459Z,99178.56
2023-02-18T05:23:21.327Z,99180.75
2023-02-18T05:26:43.148Z,99177.28
2023-02-18T05:30:05.997Z,99158.63
2023-02-18T05:33:27.855Z,99170.50
2023-02-18T05:36:56.601Z,99166.13
2023-02-18T05:40:18.534Z,99168.03
2023-02-18T05:43:59.171Z,99150.97
2023-02-18T05:47:22.075Z,99164.16
2023-02-18T05:50:43.923Z,99157.03
2023-02-18T05:54:06.798Z,99154.00
2023-02-18T05:57:28.668Z,99147.00
2023-02-18T06:00:50.448Z,99153.78
2023-02-18T06:04:12.733Z,99136.16
2023-02-18T06:07:34.811Z,99140.28
2023-02-18T06:10:56.732Z,99128.44
2023-02-18T06:14:21.664Z,99117.47
2023-02-18T06:17:44.632Z,99118.13
2023-02-18T06:21:06.852Z,99121.25
2023-02-18T06:24:28.682Z,99115.59
2023-02-18T06:27:50.812Z,99105.31
2023-02-18T06:31:12.795Z,99096.28
2023-02-18T06:34:35.722Z,99102.88
2023-02-18T06:37:57.564Z,99117.09
2023-02-18T06:41:19.470Z,99100.41
2023-02-18T06:44:43.381Z,99116.25
2023-02-18T06:48:05.426Z,99115.94
2023-02-18T06:51:27.301Z,99109.34
2023-02-18T06:54:49.104Z,99112.59
2023-02-18T06:58:12.541Z,99113.03
2023-02-18T07:01:35.531Z,99117.56
2023-02-18T07:04:59.406Z,99122.09
2023-02-18T07:08:21.654Z,99111.88
2023-02-18T07:11:43.527Z,99124.25
2023-02-18T07:15:05.785Z,99127.97
2023-02-18T07:18:27.646Z,99123.78
2023-02-18T07:21:49.574Z,99127.91
2023-02-18T07:25:18.519Z,99127.38
2023-02-18T07:28:41.731Z,99108.38
2023-02-18T07:32:03.836Z,99110.41
2023-02-18T07:35:25.728Z,99112.69
2023-02-18T07:38:47.630Z,99117.00
2023-02-18T07:42:11.660Z,99112.34
2023-02-18T07:45:33.593Z,99102.78
2023-02-18T07:48:57.569Z,99114.50
2023-02-18T07:52:20.485Z,99101.47
2023-02-18T07:55:51.382Z,99084.31
2023-02-18T07:59:13.865Z,99109.44
2023-02-18T08:02:35.636Z,99117.81
2023-02-18T08:05:58.862Z,99123.00
2023-02-18T08:09:20.666Z,99111.66
2023-02-18T08:12:42.431Z,99100.50
2023-02-18T08:16:04.646Z,99109.72
2023-02-18T08:19:28.497Z,99112.59
2023-02-18T08:22:50.384Z,99125.38
2023-02-18T08:26:13.336Z,99131.03
2023-02-18T08:29:38.920Z,99125.91
2023-02-18T08:33:01.804Z,99151.34
2023-02-18T08:36:24.826Z,99156.97
2023-02-18T08:39:48.751Z,99156.28
2023-02-18T08:43:18.818Z,99158.03
2023-02-18T08:46:48.291Z,99176.66
2023-02-18T08:50:10.601Z,99176.88
2023-02-18T08:53:33.435Z,99184.50
2023-02-18T08:56:59.972Z,99182.34
2023-02-18T09:00:23.634Z,99171.09
2023-02-18T09:03:48.884Z,99169.41
2023-02-18T09:07:16.578Z,99176.47
2023-02-18T09:10:46.288Z,99173.75
2023-02-18T09:14:09.365Z,99171.28
2023-02-18T09:17:34.492Z,99161.56
2023-02-18T09:21:09.733Z,99175.97
2023-02-18T09:24:41.706Z,99167.63
2023-02-18T09:28:05.716Z,99165.16
2023-02-18T09:31:29.054Z,99154.75
2023-02-18T09:34:58.856Z,99154.84
2023-02-18T09:38:20.790Z,99159.56
2023-02-18T09:41:52.579Z,99167.47
2023-02-18T09:45:16.458Z,99169.19
2023-02-18T09:48:38.479Z,99181.09
2023-02-18T09:52:14.166Z,99178.44
2023-02-18T09:55:41.288Z,99182.75
2023-02-18T09:59:11.219Z,99181.50
2023-02-18T10:02:38.034Z,99185.53
2023-02-18T10:06:22.464Z,99180.69
2023-02-18T10:09:46.220Z,99178.44
2023-02-18T10:13:25.080Z,99165.84
2023-02-18T10:16:52.511Z,99174.84
2023-02-18T10:20:23.249Z,99175.34
2023-02-18T10:24:09.147Z,99177.06
2023-02-18T10:27:38.835Z,99181.84
2023-02-18T10:31:24.208Z,99174.94
2023-02-18T10:35:31.022Z,99170.22
2023-02-18T10:40:00.284Z,99178.66
2023-02-18T10:44:23.771Z,99172.41
2023-02-18T10:48:34.620Z,99186.31
2023-02-18T10:52:15.949Z,99181.25
2023-02-18T10:55:45.459Z,99175.78
2023-02-18T10:59:12.227Z,99168.69
2023-02-18T11:02:34.176Z,99171.69
2023-02-18T11:05:57.117Z,99179.63
2023-02-18T11:09:52.410Z,99176.34
2023-02-18T11:13:26.275Z,99175.34
2023-02-18T11:16:53.545Z,99153.88
2023-02-18T11:20:36.768Z,99165.38
2023-02-18T11:24:15.626Z,99157.13
2023-02-18T11:28:01.068Z,99133.56
2023-02-18T11:31:37.067Z,99151.22
2023-02-18T11:34:59.332Z,99141.16
2023-02-18T11:38:56.694Z,99145.47
2023-02-18T11:42:24.777Z,99155.38
2023-02-18T11:45:47.747Z,99146.44
2023-02-18T11:49:29.863Z,99144.63
2023-02-18T11:52:53.753Z,99151.03
2023-02-18T11:56:30.699Z,99151.19
2023-02-18T11:59:55.096Z,99136.00
2023-02-18T12:03:53.819Z,99140.50
2023-02-18T12:07:41.274Z,99132.50
2023-02-18T12:11:34.466Z,99126.00
2023-02-18T12:14:59.467Z,99112.69
2023-02-18T12:18:58.098Z,99096.00
2023-02-18T12:22:44.773Z,99109.88
2023-02-18T12:26:29.678Z,99106.84
2023-02-18T12:29:59.682Z,99103.13
2023-02-18T12:33:55.295Z,99105.69
2023-02-18T12:38:24.072Z,99097.19
2023-02-18T12:42:24.893Z,99098.31
2023-02-18T12:46:22.235Z,99098.84
2023-02-18T12:50:15.218Z,99090.94
2023-02-18T12:53:50.068Z,99096.25
2023-02-18T12:57:19.924Z,99081.72
2023-02-18T13:01:01.620Z,99089.75
2023-02-18T13:04:57.070Z,99075.19
2023-02-18T13:08:58.987Z,99067.34
2023-02-18T13:13:03.699Z,99057.38
2023-02-18T13:16:29.199Z,99074.72
2023-02-18T13:20:17.088Z,99064.34
2023-02-18T13:23:58.794Z,99061.50
2023-02-18T13:27:58.616Z,99054.25
2023-02-18T13:31:42.670Z,99041.47
2023-02-18T13:35:35.235Z,99041.38
2023-02-18T13:39:20.542Z,99041.53
2023-02-18T13:42:51.600Z,99035.47
2023-02-18T13:46:19.083Z,99020.56
2023-02-18T13:49:48.521Z,99036.56
2023-02-18T13:53:24.350Z,99037.06
2023-02-18T13:56:58.031Z,99048.19
2023-02-18T14:00:47.559Z,99059.94
2023-02-18T14:04:43.314Z,99055.25
2023-02-18T14:08:36.177Z,99034.13
2023-02-18T14:12:26.185Z,99046.34
2023-02-18T14:16:01.732Z,99042.88
2023-02-18T14:19:30.537Z,99038.91
2023-02-18T14:22:53.193Z,99041.59
2023-02-18T14:26:14.944Z,99048.13
2023-02-18T14:29:36.858Z,99039.31
2023-02-18T14:33:01.912Z,99040.28
2023-02-18T14:36:54.549Z,99039.47
2023-02-18T14:40:52.779Z,99040.34
2023-02-18T14:44:14.506Z,99038.00
2023-02-18T14:47:57.766Z,99040.19
2023-02-18T14:51:26.906Z,99023.97
2023-02-18T14:54:49.877Z,99031.22
2023-02-18T14:58:28.153Z,99032.53
2023-02-18T15:01:53.411Z,99031.41
2023-02-18T15:05:26.620Z,99039.66
2023-02-18T15:08:49.405Z,99020.88
2023-02-18T15:12:25.882Z,99038.88
2023-02-18T15:15:59.986Z,99033.53
2023-02-18T15:19:39.787Z,99030.97
2023-02-18T15:23:01.961Z,99038.97
2023-02-18T15:26:23.871Z,99036.75
2023-02-18T15:29:52.283Z,99043.94
2023-02-18T15:33:23.555Z,99043.31
2023-02-18T15:36:51.053Z,99053.84
2023-02-18T15:40:18.847Z,99055.69
2023-02-18T15:44:05.851Z,99060.47
2023-02-18T15:47:30.201Z,99034.66
2023-02-18T15:51:02.793Z,99060.41
2023-02-18T15:54:31.805Z,99050.63
2023-02-18T15:57:54.789Z,99048.81
2023-02-18T16:01:30.471Z,99051.25
2023-02-18T16:05:00.293Z,99057.38
2023-02-18T16:08:27.716Z,99062.81
2023-02-18T16:11:56.975Z,99055.06
2023-02-18T16:15:29.997Z,99048.94
2023-02-18T16:18:51.956Z,99064.63
2023-02-18T16:22:36.488Z,99053.13
2023-02-18T16:26:18.843Z,99057.97
2023-02-18T16:29:51.033Z,99051.31
2023-02-18T16:33:12.939Z,99042.50
2023-02-18T16:36:35.125Z,99050.72
2023-02-18T16:39:57.643Z,99052.38
2023-02-18T16:43:26.785Z,99049.72
2023-02-18T16:46:48.814Z,99046.59
2023-02-18T16:50:21.079Z,99042.41
2023-02-18T16:53:44.645Z,99054.13
2023-02-18T16:57:07.400Z,99047.84
2023-02-18T17:00:29.483Z,99042.78
2023-02-18T17:03:52.461Z,99050.50
2023-02-18T17:07:14.582Z,99035.03
2023-02-18T17:10:37.375Z,99043.03
2023-02-18T17:14:00.019Z,99046.88
2023-02-18T17:17:23.518Z,99052.19
2023-02-18T17:20:48.261Z,99053.88
2023-02-18T17:24:18.931Z,99050.50
2023-02-18T17:27:40.839Z,99045.91
2023-02-18T17:31:02.791Z,99054.13
2023-02-18T17:34:31.085Z,99057.63
2023-02-18T17:37:53.469Z,99063.31
2023-02-18T17:41:16.041Z,99059.66
2023-02-18T17:44:39.883Z,99063.66
2023-02-18T17:48:04.048Z,99052.06
2023-02-18T17:51:31.407Z,99065.97
2023-02-18T17:54:53.179Z,99060.88
2023-02-18T17:58:17.714Z,99062.34
2023-02-18T18:01:42.284Z,99062.81
2023-02-18T18:05:04.563Z,99065.84
2023-02-18T18:08:26.415Z,99056.56
2023-02-18T18:11:49.247Z,99061.00
2023-02-18T18:15:36.646Z,99066.31
2023-02-18T18:19:02.510Z,99059.44
2023-02-18T18:22:24.314Z,99057.50
2023-02-18T18:25:58.980Z,99065.94
2023-02-18T18:29:22.871Z,99073.97
2023-02-18T18:32:44.734Z,99070.66
2023-02-18T18:36:07.434Z,99065.34
2023-02-18T18:39:35.241Z,99066.69
2023-02-18T18:42:59.995Z,99065.34
2023-02-18T18:46:22.942Z,99054.84
2023-02-18T18:49:44.849Z,99054.34
2023-02-18T18:53:14.533Z,99064.25
2023-02-18T18:56:38.409Z,99054.34
2023-02-18T19:00:02.315Z,99057.75
2023-02-18T19:03:27.151Z,99057.25
2023-02-18T19:06:55.757Z,99056.88
2023-02-18T19:10:19.789Z,99063.28
2023-02-18T19:13:46.789Z,99063.28
2023-02-18T19:17:10.984Z,99055.41
2023-02-18T19:20:35.968Z,99050.97
2023-02-18T19:23:58.016Z,99056.53
2023-02-18T19:27:25.851Z,99049.84
2023-02-18T19:30:49.720Z,99054.38
2023-02-18T19:34:14.366Z,99059.03
2023-02-18T19:37:38.334Z,99055.56
2023-02-18T19:41:14.938Z,99058.66
2023-02-18T19:44:42.545Z,99043.09
2023-02-18T19:48:04.408Z,99050.00
2023-02-18T19:51:26.778Z,99047.50
2023-02-18T19:54:49.035Z,99052.16
2023-02-18T19:58:15.808Z,99044.19
2023-02-18T20:01:38.716Z,99042.94
2023-02-18T20:05:01.853Z,99045.38
2023-02-18T20:08:23.735Z,99040.69
2023-02-18T20:11:45.790Z,99048.19
2023-02-18T20:15:09.087Z,99045.19
2023-02-18T20:18:31.703Z,99040.69
2023-02-18T20:21:55.901Z,99037.19
2023-02-18T20:25:18.154Z,99040.00
2023-02-18T20:28:40.874Z,99042.50
2023-02-18T20:32:05.836Z,99036.09
2023-02-18T20:35:27.708Z,99032.72
2023-02-18T20:38:51.918Z,99050.25
2023-02-18T20:42:16.875Z,99027.78
2023-02-18T20:45:39.017Z,99005.81
2023-02-18T20:49:02.002Z,99018.47
2023-02-18T20:52:28.996Z,99012.56
2023-02-18T20:55:51.772Z,99010.16
2023-02-18T20:59:18.142Z,99010.09
2023-02-18T21:02:41.928Z,99018.34
2023-02-18T21:06:15.143Z,99011.09
2023-02-18T21:09:37.145Z,99011.31
2023-02-18T21:13:02.072Z,99010.34
2023-02-18T21:16:27.901Z,99016.44
2023-02-18T21:19:49.791Z,99000.72
2023-02-18T21:23:12.560Z,99009.31
2023-02-18T21:26:34.598Z,99007.00
2023-02-18T21:29:59.873Z,98984.06
2023-02-18T21:33:28.739Z,98990.34
2023-02-18T21:36:50.543Z,98984.63
2023-02-18T21:40:13.386Z,98981.63
2023-02-18T21:43:35.167Z,98977.91
2023-02-18T21:47:06.090Z,98988.66
2023-02-18T21:50:27.883Z,98984.91
2023-02-18T21:53:49.701Z,98967.03
2023-02-18T21:57:24.106Z,98975.88
2023-02-18T22:00:55.928Z,98982.16
2023-02-18T22:04:18.156Z,98982.59
2023-02-18T22:07:39.937Z,98976.06
2023-02-18T22:11:05.593Z,98985.00
2023-02-18T22:14:53.708Z,98983.91
2023-02-18T22:18:19.269Z,98985.72
2023-02-18T22:21:42.262Z,98987.84
2023-02-18T22:25:04.725Z,98979.56
2023-02-18T22:28:28.630Z,98965.69
2023-02-18T22:31:53.704Z,98964.66
2023-02-18T22:35:18.724Z,98961.69
2023-02-18T22:38:40.541Z,98958.13
2023-02-18T22:42:11.398Z,98969.44
2023-02-18T22:45:41.095Z,98952.28
2023-02-18T22:49:09.302Z,98958.03
2023-02-18T22:52:56.880Z,98968.19
2023-02-18T22:56:20.928Z,98970.22
2023-02-18T22:59:42.749Z,98959.91
2023-02-18T23:03:04.526Z,98951.94
2023-02-18T23:06:26.398Z,98969.31
2023-02-18T23:09:48.262Z,98964.00
2023-02-18T23:13:15.091Z,98953.25
2023-02-18T23:16:56.417Z,98949.72
2023-02-18T23:20:39.571Z,98943.84
2023-02-18T23:24:01.391Z,98953.81
2023-02-18T23:27:48.449Z,98942.66
2023-02-18T23:31:12.592Z,98939.13
2023-02-18T23:34:35.691Z,98936.59
2023-02-18T23:38:03.183Z,98953.06
2023-02-18T23:41:26.780Z,98930.13
2023-02-18T23:44:51.631Z,98930.59
2023-02-18T23:48:23.468Z,98938.13
2023-02-18T23:51:48.043Z,98952.13
2023-02-18T23:55:10.578Z,98953.72
2023-02-18T23:58:34.183Z,98938.38
